sensor_id;sensor_type;location;lat;lon;timestamp;pressure;altitude;pressure_sealevel;temperature;humidity
68376;BME280;55318;52.068;5.188;2023-02-22T00:01:18;101597.0;;;8.27;91.35
68376;BME280;55318;52.068;5.188;2023-02-22T00:02:58;101594.0;;;8.34;91.27
68376;BME280;55318;52.068;5.188;2023-02-22T00:06:16;101596.0;;;8.43;91.0
68376;BME280;55318;52.068;5.188;2023-02-22T00:07:53;101597.0;;;8.53;90.55
68376;BME280;55318;52.068;5.188;2023-02-22T00:09:33;101594.0;;;8.59;89.98
68376;BME280;55318;52.068;5.188;2023-02-22T00:12:48;101601.0;;;8.5;90.3
68376;BME280;55318;52.068;5.188;2023-02-22T00:14:26;101600.0;;;8.35;90.83
68376;BME280;55318;52.068;5.188;2023-02-22T00:16:03;101595.0;;;8.39;91.15
68376;BME280;55318;52.068;5.188;2023-02-22T00:17:40;101597.0;;;8.39;91.34
68376;BME280;55318;52.068;5.188;2023-02-22T00:20:54;101596.0;;;8.36;91.7
68376;BME280;55318;52.068;5.188;2023-02-22T00:22:31;101594.0;;;8.39;91.34
68376;BME280;55318;52.068;5.188;2023-02-22T00:24:22;101593.0;;;8.36;91.68
68376;BME280;55318;52.068;5.188;2023-02-22T00:25:59;101590.0;;;8.43;91.28
68376;BME280;55318;52.068;5.188;2023-02-22T00:29:11;101596.0;;;8.55;91.18
68376;BME280;55318;52.068;5.188;2023-02-22T00:30:48;101594.0;;;8.45;91.23
68376;BME280;55318;52.068;5.188;2023-02-22T00:32:25;101589.0;;;8.42;91.49
68376;BME280;55318;52.068;5.188;2023-02-22T00:35:37;101589.0;;;8.25;91.61
68376;BME280;55318;52.068;5.188;2023-02-22T00:37:14;101590.0;;;8.06;91.94
68376;BME280;55318;52.068;5.188;2023-02-22T00:38:50;101586.0;;;8.17;91.92
68376;BME280;55318;52.068;5.188;2023-02-22T00:42:07;101581.0;;;8.14;91.83
68376;BME280;55318;52.068;5.188;2023-02-22T00:43:43;101577.0;;;8.2;90.83
68376;BME280;55318;52.068;5.188;2023-02-22T00:45:21;101576.0;;;8.08;91.0
68376;BME280;55318;52.068;5.188;2023-02-22T00:46:59;101575.0;;;8.1;91.04
68376;BME280;55318;52.068;5.188;2023-02-22T00:50:12;101570.0;;;8.31;90.43
68376;BME280;55318;52.068;5.188;2023-02-22T00:51:51;101569.0;;;8.25;90.99
68376;BME280;55318;52.068;5.188;2023-02-22T00:53:27;101569.0;;;8.3;90.55
68376;BME280;55318;52.068;5.188;2023-02-22T00:56:44;101568.0;;;8.16;90.89
68376;BME280;55318;52.068;5.188;2023-02-22T00:58:20;101568.0;;;8.1;91.49
68376;BME280;55318;52.068;5.188;2023-02-22T00:59:57;101565.0;;;7.95;92.22
68376;BME280;55318;52.068;5.188;2023-02-22T01:01:34;101565.0;;;7.99;92.35
68376;BME280;55318;52.068;5.188;2023-02-22T01:04:52;101562.0;;;8.01;92.3
68376;BME280;55318;52.068;5.188;2023-02-22T01:06:28;101563.0;;;8.08;91.56
68376;BME280;55318;52.068;5.188;2023-02-22T01:08:07;101555.0;;;8.15;91.14
68376;BME280;55318;52.068;5.188;2023-02-22T01:11:21;101552.0;;;8.09;91.42
68376;BME280;55318;52.068;5.188;2023-02-22T01:12:58;101555.0;;;8.07;91.64
68376;BME280;55318;52.068;5.188;2023-02-22T01:14:36;101556.0;;;8.16;91.5
68376;BME280;55318;52.068;5.188;2023-02-22T01:16:12;101562.0;;;8.22;91.26
68376;BME280;55318;52.068;5.188;2023-02-22T01:19:27;101556.0;;;8.18;90.88
68376;BME280;55318;52.068;5.188;2023-02-22T01:21:04;101562.0;;;8.19;90.58
68376;BME280;55318;52.068;5.188;2023-02-22T01:22:42;101560.0;;;8.23;90.95
68376;BME280;55318;52.068;5.188;2023-02-22T01:25:57;101559.0;;;8.16;90.9
68376;BME280;55318;52.068;5.188;2023-02-22T01:27:34;101555.0;;;8.16;91.04
68376;BME280;55318;52.068;5.188;2023-02-22T01:29:15;101555.0;;;8.26;90.97
68376;BME280;55318;52.068;5.188;2023-02-22T01:30:55;101549.0;;;8.17;90.63
68376;BME280;55318;52.068;5.188;2023-02-22T01:34:12;101546.0;;;8.2;91.08
68376;BME280;55318;52.068;5.188;2023-02-22T01:35:50;101548.0;;;8.34;90.91
68376;BME280;55318;52.068;5.188;2023-02-22T01:37:26;101552.0;;;8.39;90.73
68376;BME280;55318;52.068;5.188;2023-02-22T01:40:39;101555.0;;;8.39;90.26
68376;BME280;55318;52.068;5.188;2023-02-22T01:42:17;101552.0;;;8.53;89.54
68376;BME280;55318;52.068;5.188;2023-02-22T01:43:53;101547.0;;;8.44;89.75
68376;BME280;55318;52.068;5.188;2023-02-22T01:45:43;101542.0;;;8.39;89.78
68376;BME280;55318;52.068;5.188;2023-02-22T01:47:39;101538.0;;;8.42;89.95
68376;BME280;55318;52.068;5.188;2023-02-22T01:50:56;101536.0;;;8.47;89.93
68376;BME280;55318;52.068;5.188;2023-02-22T01:52:34;101537.0;;;8.38;89.52
68376;BME280;55318;52.068;5.188;2023-02-22T01:54:18;101530.0;;;8.3;90.14
68376;BME280;55318;52.068;5.188;2023-02-22T01:55:55;101533.0;;;8.28;90.14
68376;BME280;55318;52.068;5.188;2023-02-22T01:59:13;101528.0;;;8.19;90.02
68376;BME280;55318;52.068;5.188;2023-02-22T02:00:49;101530.0;;;8.33;89.19
68376;BME280;55318;52.068;5.188;2023-02-22T02:02:26;101527.0;;;8.26;88.6
68376;BME280;55318;52.068;5.188;2023-02-22T02:05:47;101528.0;;;8.27;88.66
68376;BME280;55318;52.068;5.188;2023-02-22T02:07:25;101519.0;;;8.23;88.03
68376;BME280;55318;52.068;5.188;2023-02-22T02:09:05;101511.0;;;8.15;87.92
68376;BME280;55318;52.068;5.188;2023-02-22T02:10:47;101516.0;;;8.22;87.71
68376;BME280;55318;52.068;5.188;2023-02-22T02:14:06;101519.0;;;8.1;87.09
68376;BME280;55318;52.068;5.188;2023-02-22T02:15:43;101511.0;;;7.84;88.27
68376;BME280;55318;52.068;5.188;2023-02-22T02:17:21;101509.0;;;7.79;88.77
68376;BME280;55318;52.068;5.188;2023-02-22T02:18:58;101505.0;;;7.78;89.27
68376;BME280;55318;52.068;5.188;2023-02-22T02:22:29;101503.0;;;7.81;89.12
68376;BME280;55318;52.068;5.188;2023-02-22T02:24:50;101501.0;;;7.88;89.22
68376;BME280;55318;52.068;5.188;2023-02-22T02:27:10;101503.0;;;7.86;89.21
68376;BME280;55318;52.068;5.188;2023-02-22T02:29:26;101499.0;;;7.82;89.3
68376;BME280;55318;52.068;5.188;2023-02-22T02:32:51;101492.0;;;7.79;89.62
68376;BME280;55318;52.068;5.188;2023-02-22T02:34:34;101495.0;;;7.7;90.06
68376;BME280;55318;52.068;5.188;2023-02-22T02:36:18;101495.0;;;7.72;90.25
68376;BME280;55318;52.068;5.188;2023-02-22T02:38:03;101487.0;;;7.7;89.75
68376;BME280;55318;52.068;5.188;2023-02-22T02:39:50;101483.0;;;7.68;90.33
68376;BME280;55318;52.068;5.188;2023-02-22T02:43:27;101485.0;;;7.69;90.79
68376;BME280;55318;52.068;5.188;2023-02-22T02:45:07;101477.0;;;7.69;90.61
68376;BME280;55318;52.068;5.188;2023-02-22T02:46:50;101475.0;;;7.74;90.46
68376;BME280;55318;52.068;5.188;2023-02-22T02:48:33;101475.0;;;7.66;90.41
68376;BME280;55318;52.068;5.188;2023-02-22T02:51:55;101470.0;;;7.71;90.01
68376;BME280;55318;52.068;5.188;2023-02-22T02:53:35;101469.0;;;7.62;90.27
68376;BME280;55318;52.068;5.188;2023-02-22T02:55:13;101460.0;;;7.63;90.23
68376;BME280;55318;52.068;5.188;2023-02-22T02:56:52;101463.0;;;7.54;90.26
68376;BME280;55318;52.068;5.188;2023-02-22T03:00:25;101467.0;;;7.49;90.53
68376;BME280;55318;52.068;5.188;2023-02-22T03:02:33;101465.0;;;7.59;90.06
68376;BME280;55318;52.068;5.188;2023-02-22T03:04:25;101462.0;;;7.53;90.05
68376;BME280;55318;52.068;5.188;2023-02-22T03:06:13;101465.0;;;7.49;90.1
68376;BME280;55318;52.068;5.188;2023-02-22T03:08:20;101455.0;;;7.57;89.64
68376;BME280;55318;52.068;5.188;2023-02-22T03:10:16;101453.0;;;7.58;89.69
68376;BME280;55318;52.068;5.188;2023-02-22T03:12:10;101459.0;;;7.31;90.61
68376;BME280;55318;52.068;5.188;2023-02-22T03:14:00;101456.0;;;7.34;91.3
68376;BME280;55318;52.068;5.188;2023-02-22T03:15:49;101457.0;;;7.32;91.69
68376;BME280;55318;52.068;5.188;2023-02-22T03:17:37;101452.0;;;7.27;91.98
68376;BME280;55318;52.068;5.188;2023-02-22T03:21:10;101448.0;;;7.17;92.51
68376;BME280;55318;52.068;5.188;2023-02-22T03:22:57;101448.0;;;7.3;91.89
68376;BME280;55318;52.068;5.188;2023-02-22T03:24:38;101446.0;;;7.29;91.97
68376;BME280;55318;52.068;5.188;2023-02-22T03:26:26;101447.0;;;7.29;91.97
68376;BME280;55318;52.068;5.188;2023-02-22T03:28:12;101445.0;;;7.45;91.27
68376;BME280;55318;52.068;5.188;2023-02-22T03:31:38;101439.0;;;7.57;91.0
68376;BME280;55318;52.068;5.188;2023-02-22T03:33:24;101441.0;;;7.35;91.87
68376;BME280;55318;52.068;5.188;2023-02-22T03:35:06;101432.0;;;7.54;91.1
68376;BME280;55318;52.068;5.188;2023-02-22T03:36:47;101430.0;;;7.46;91.3
68376;BME280;55318;52.068;5.188;2023-02-22T03:38:27;101432.0;;;7.34;91.67
68376;BME280;55318;52.068;5.188;2023-02-22T03:41:55;101430.0;;;7.51;91.11
68376;BME280;55318;52.068;5.188;2023-02-22T03:43:36;101425.0;;;7.4;91.87
68376;BME280;55318;52.068;5.188;2023-02-22T03:45:18;101427.0;;;7.38;91.8
68376;BME280;55318;52.068;5.188;2023-02-22T03:46:59;101425.0;;;7.39;91.91
68376;BME280;55318;52.068;5.188;2023-02-22T03:50:27;101423.0;;;7.46;91.41
68376;BME280;55318;52.068;5.188;2023-02-22T03:52:07;101423.0;;;7.47;91.07
68376;BME280;55318;52.068;5.188;2023-02-22T03:53:44;101420.0;;;7.49;91.44
68376;BME280;55318;52.068;5.188;2023-02-22T03:55:22;101420.0;;;7.61;90.94
68376;BME280;55318;52.068;5.188;2023-02-22T03:58:48;101420.0;;;7.44;90.68
68376;BME280;55318;52.068;5.188;2023-02-22T04:00:28;101411.0;;;7.37;91.02
68376;BME280;55318;52.068;5.188;2023-02-22T04:02:05;101410.0;;;7.43;90.98
68376;BME280;55318;52.068;5.188;2023-02-22T04:03:42;101405.0;;;7.44;91.22
68376;BME280;55318;52.068;5.188;2023-02-22T04:06:56;101405.0;;;7.29;91.93
68376;BME280;55318;52.068;5.188;2023-02-22T04:08:33;101400.0;;;7.18;92.59
68376;BME280;55318;52.068;5.188;2023-02-22T04:10:12;101402.0;;;7.26;92.74
68376;BME280;55318;52.068;5.188;2023-02-22T04:11:51;101400.0;;;7.09;93.49
68376;BME280;55318;52.068;5.188;2023-02-22T04:15:06;101390.0;;;7.14;93.4
68376;BME280;55318;52.068;5.188;2023-02-22T04:16:44;101394.0;;;6.93;94.25
68376;BME280;55318;52.068;5.188;2023-02-22T04:18:19;101386.0;;;6.89;94.36
68376;BME280;55318;52.068;5.188;2023-02-22T04:21:34;101382.0;;;6.97;94.75
68376;BME280;55318;52.068;5.188;2023-02-22T04:23:10;101386.0;;;6.8;95.59
68376;BME280;55318;52.068;5.188;2023-02-22T04:24:48;101385.0;;;6.81;95.54
68376;BME280;55318;52.068;5.188;2023-02-22T04:28:01;101386.0;;;6.75;96.05
68376;BME280;55318;52.068;5.188;2023-02-22T04:29:38;101386.0;;;6.81;96.03
68376;BME280;55318;52.068;5.188;2023-02-22T04:31:15;101377.0;;;6.74;95.8
68376;BME280;55318;52.068;5.188;2023-02-22T04:32:52;101367.0;;;6.89;95.92
68376;BME280;55318;52.068;5.188;2023-02-22T04:36:05;101367.0;;;6.89;95.59
68376;BME280;55318;52.068;5.188;2023-02-22T04:37:41;101361.0;;;6.88;95.76
68376;BME280;55318;52.068;5.188;2023-02-22T04:39:17;101360.0;;;6.84;96.24
68376;BME280;55318;52.068;5.188;2023-02-22T04:42:29;101362.0;;;6.76;96.62
68376;BME280;55318;52.068;5.188;2023-02-22T04:44:06;101361.0;;;6.8;96.55
68376;BME280;55318;52.068;5.188;2023-02-22T04:45:42;101360.0;;;6.57;97.04
68376;BME280;55318;52.068;5.188;2023-02-22T04:48:54;101360.0;;;6.54;97.51
68376;BME280;55318;52.068;5.188;2023-02-22T04:50:30;101359.0;;;6.62;97.63
68376;BME280;55318;52.068;5.188;2023-02-22T04:52:06;101355.0;;;6.58;97.58
68376;BME280;55318;52.068;5.188;2023-02-22T04:53:43;101348.0;;;6.76;97.15
68376;BME280;55318;52.068;5.188;2023-02-22T04:56:56;101340.0;;;6.72;97.39
68376;BME280;55318;52.068;5.188;2023-02-22T04:58:33;101349.0;;;6.68;97.22
68376;BME280;55318;52.068;5.188;2023-02-22T05:00:14;101347.0;;;6.71;97.38
68376;BME280;55318;52.068;5.188;2023-02-22T05:03:28;101349.0;;;6.8;97.13
68376;BME280;55318;52.068;5.188;2023-02-22T05:05:05;101343.0;;;6.8;97.19
68376;BME280;55318;52.068;5.188;2023-02-22T05:06:42;101337.0;;;6.86;97.04
68376;BME280;55318;52.068;5.188;2023-02-22T05:08:18;101334.0;;;6.75;97.48
68376;BME280;55318;52.068;5.188;2023-02-22T05:11:30;101335.0;;;6.74;97.73
68376;BME280;55318;52.068;5.188;2023-02-22T05:13:06;101330.0;;;6.66;98.47
68376;BME280;55318;52.068;5.188;2023-02-22T05:14:43;101330.0;;;6.77;98.23
68376;BME280;55318;52.068;5.188;2023-02-22T05:17:56;101324.0;;;6.78;98.19
68376;BME280;55318;52.068;5.188;2023-02-22T05:19:32;101327.0;;;6.63;98.78
68376;BME280;55318;52.068;5.188;2023-02-22T05:21:08;101324.0;;;6.57;99.4
68376;BME280;55318;52.068;5.188;2023-02-22T05:24:21;101330.0;;;6.44;100.0
68376;BME280;55318;52.068;5.188;2023-02-22T05:25:57;101327.0;;;6.59;100.0
68376;BME280;55318;52.068;5.188;2023-02-22T05:27:33;101330.0;;;6.56;100.0
68376;BME280;55318;52.068;5.188;2023-02-22T05:30:47;101327.0;;;6.55;100.0
68376;BME280;55318;52.068;5.188;2023-02-22T05:32:23;101322.0;;;6.61;100.0
68376;BME280;55318;52.068;5.188;2023-02-22T05:33:59;101318.0;;;6.58;100.0
68376;BME280;55318;52.068;5.188;2023-02-22T05:35:36;101318.0;;;6.6;100.0
68376;BME280;55318;52.068;5.188;2023-02-22T05:38:48;101321.0;;;6.69;100.0
68376;BME280;55318;52.068;5.188;2023-02-22T05:42:03;101321.0;;;6.63;100.0
68376;BME280;55318;52.068;5.188;2023-02-22T05:45:18;101317.0;;;6.65;100.0
68376;BME280;55318;52.068;5.188;2023-02-22T05:46:55;101324.0;;;6.54;100.0
68376;BME280;55318;52.068;5.188;2023-02-22T05:48:32;101326.0;;;6.6;100.0
68376;BME280;55318;52.068;5.188;2023-02-22T05:50:09;101324.0;;;6.63;100.0
68376;BME280;55318;52.068;5.188;2023-02-22T05:53:22;101313.0;;;6.8;100.0
68376;BME280;55318;52.068;5.188;2023-02-22T05:54:59;101316.0;;;6.53;100.0
68376;BME280;55318;52.068;5.188;2023-02-22T05:56:36;101314.0;;;6.42;100.0
68376;BME280;55318;52.068;5.188;2023-02-22T05:59:49;101306.0;;;6.54;100.0
68376;BME280;55318;52.068;5.188;2023-02-22T06:01:25;101302.0;;;6.5;100.0
68376;BME280;55318;52.068;5.188;2023-02-22T06:03:04;101297.0;;;6.52;100.0
68376;BME280;55318;52.068;5.188;2023-02-22T06:06:19;101294.0;;;6.57;100.0
68376;BME280;55318;52.068;5.188;2023-02-22T06:07:55;101292.0;;;6.62;100.0
68376;BME280;55318;52.068;5.188;2023-02-22T06:09:32;101291.0;;;6.62;100.0
68376;BME280;55318;52.068;5.188;2023-02-22T06:11:09;101300.0;;;6.75;100.0
68376;BME280;55318;52.068;5.188;2023-02-22T06:14:25;101301.0;;;6.48;100.0
68376;BME280;55318;52.068;5.188;2023-02-22T06:16:01;101298.0;;;6.35;100.0
68376;BME280;55318;52.068;5.188;2023-02-22T06:17:41;101290.0;;;6.41;100.0
68376;BME280;55318;52.068;5.188;2023-02-22T06:20:53;101289.0;;;6.56;100.0
68376;BME280;55318;52.068;5.188;2023-02-22T06:22:29;101287.0;;;6.57;100.0
68376;BME280;55318;52.068;5.188;2023-02-22T06:24:06;101289.0;;;6.68;100.0
68376;BME280;55318;52.068;5.188;2023-02-22T06:25:42;101288.0;;;6.78;100.0
68376;BME280;55318;52.068;5.188;2023-02-22T06:28:54;101285.0;;;6.82;100.0
68376;BME280;55318;52.068;5.188;2023-02-22T06:30:30;101280.0;;;6.68;100.0
68376;BME280;55318;52.068;5.188;2023-02-22T06:32:06;101278.0;;;6.58;100.0
68376;BME280;55318;52.068;5.188;2023-02-22T06:35:19;101277.0;;;6.67;100.0
68376;BME280;55318;52.068;5.188;2023-02-22T06:36:56;101276.0;;;6.7;100.0
68376;BME280;55318;52.068;5.188;2023-02-22T06:38:32;101272.0;;;6.64;100.0
68376;BME280;55318;52.068;5.188;2023-02-22T06:41:49;101272.0;;;6.59;100.0
68376;BME280;55318;52.068;5.188;2023-02-22T06:43:25;101276.0;;;6.62;100.0
68376;BME280;55318;52.068;5.188;2023-02-22T06:45:02;101276.0;;;6.51;100.0
68376;BME280;55318;52.068;5.188;2023-02-22T06:46:39;101275.0;;;6.42;100.0
68376;BME280;55318;52.068;5.188;2023-02-22T06:49:58;101268.0;;;6.57;100.0
68376;BME280;55318;52.068;5.188;2023-02-22T06:51:35;101268.0;;;6.48;100.0
68376;BME280;55318;52.068;5.188;2023-02-22T06:53:13;101264.0;;;6.41;100.0
68376;BME280;55318;52.068;5.188;2023-02-22T06:56:27;101260.0;;;6.51;100.0
68376;BME280;55318;52.068;5.188;2023-02-22T06:58:04;101259.0;;;6.59;100.0
68376;BME280;55318;52.068;5.188;2023-02-22T06:59:41;101260.0;;;6.43;100.0
68376;BME280;55318;52.068;5.188;2023-02-22T07:01:18;101264.0;;;6.46;100.0
68376;BME280;55318;52.068;5.188;2023-02-22T07:04:31;101263.0;;;6.52;100.0
68376;BME280;55318;52.068;5.188;2023-02-22T07:06:07;101263.0;;;6.54;100.0
68376;BME280;55318;52.068;5.188;2023-02-22T07:07:45;101263.0;;;6.44;100.0
68376;BME280;55318;52.068;5.188;2023-02-22T07:11:00;101263.0;;;6.44;100.0
68376;BME280;55318;52.068;5.188;2023-02-22T07:12:36;101264.0;;;6.5;100.0
68376;BME280;55318;52.068;5.188;2023-02-22T07:14:15;101264.0;;;6.58;100.0
68376;BME280;55318;52.068;5.188;2023-02-22T07:17:28;101265.0;;;6.58;100.0
68376;BME280;55318;52.068;5.188;2023-02-22T07:19:05;101267.0;;;6.76;100.0
68376;BME280;55318;52.068;5.188;2023-02-22T07:20:41;101269.0;;;6.62;100.0
68376;BME280;55318;52.068;5.188;2023-02-22T07:22:18;101273.0;;;6.8;100.0
68376;BME280;55318;52.068;5.188;2023-02-22T07:25:33;101272.0;;;6.79;100.0
68376;BME280;55318;52.068;5.188;2023-02-22T07:27:09;101276.0;;;6.67;100.0
68376;BME280;55318;52.068;5.188;2023-02-22T07:28:46;101275.0;;;6.52;100.0
68376;BME280;55318;52.068;5.188;2023-02-22T07:32:03;101280.0;;;6.41;100.0
68376;BME280;55318;52.068;5.188;2023-02-22T07:33:41;101278.0;;;6.53;100.0
68376;BME280;55318;52.068;5.188;2023-02-22T07:35:19;101285.0;;;6.69;100.0
68376;BME280;55318;52.068;5.188;2023-02-22T07:36:57;101286.0;;;6.72;100.0
68376;BME280;55318;52.068;5.188;2023-02-22T07:40:11;101289.0;;;6.72;100.0
68376;BME280;55318;52.068;5.188;2023-02-22T07:41:47;101289.0;;;6.88;100.0
68376;BME280;55318;52.068;5.188;2023-02-22T07:43:26;101285.0;;;6.99;100.0
68376;BME280;55318;52.068;5.188;2023-02-22T07:46:40;101295.0;;;6.78;100.0
68376;BME280;55318;52.068;5.188;2023-02-22T07:48:18;101294.0;;;6.76;100.0
68376;BME280;55318;52.068;5.188;2023-02-22T07:49:56;101301.0;;;6.63;100.0
68376;BME280;55318;52.068;5.188;2023-02-22T07:51:32;101298.0;;;6.8;100.0
68376;BME280;55318;52.068;5.188;2023-02-22T07:54:51;101296.0;;;6.83;100.0
68376;BME280;55318;52.068;5.188;2023-02-22T07:56:27;101292.0;;;6.76;100.0
68376;BME280;55318;52.068;5.188;2023-02-22T07:58:06;101294.0;;;6.81;100.0
68376;BME280;55318;52.068;5.188;2023-02-22T08:01:21;101299.0;;;6.88;100.0
68376;BME280;55318;52.068;5.188;2023-02-22T08:02:59;101306.0;;;6.59;100.0
68376;BME280;55318;52.068;5.188;2023-02-22T08:04:35;101300.0;;;6.62;100.0
68376;BME280;55318;52.068;5.188;2023-02-22T08:06:11;101301.0;;;6.8;100.0
68376;BME280;55318;52.068;5.188;2023-02-22T08:09:23;101302.0;;;6.89;100.0
68376;BME280;55318;52.068;5.188;2023-02-22T08:11:00;101307.0;;;6.9;100.0
68376;BME280;55318;52.068;5.188;2023-02-22T08:12:37;101305.0;;;6.78;100.0
68376;BME280;55318;52.068;5.188;2023-02-22T08:15:53;101299.0;;;6.67;100.0
68376;BME280;55318;52.068;5.188;2023-02-22T08:17:29;101302.0;;;6.7;100.0
68376;BME280;55318;52.068;5.188;2023-02-22T08:19:05;101300.0;;;6.68;100.0
68376;BME280;55318;52.068;5.188;2023-02-22T08:22:21;101299.0;;;6.7;100.0
68376;BME280;55318;52.068;5.188;2023-02-22T08:23:57;101295.0;;;6.97;100.0
68376;BME280;55318;52.068;5.188;2023-02-22T08:25:34;101299.0;;;6.88;100.0
68376;BME280;55318;52.068;5.188;2023-02-22T08:27:11;101295.0;;;7.03;100.0
68376;BME280;55318;52.068;5.188;2023-02-22T08:30:24;101298.0;;;7.06;100.0
68376;BME280;55318;52.068;5.188;2023-02-22T08:32:00;101298.0;;;6.96;100.0
68376;BME280;55318;52.068;5.188;2023-02-22T08:33:36;101298.0;;;7.04;100.0
68376;BME280;55318;52.068;5.188;2023-02-22T08:36:52;101299.0;;;6.97;100.0
68376;BME280;55318;52.068;5.188;2023-02-22T08:38:30;101302.0;;;6.99;100.0
68376;BME280;55318;52.068;5.188;2023-02-22T08:40:08;101292.0;;;6.87;100.0
68376;BME280;55318;52.068;5.188;2023-02-22T08:41:44;101290.0;;;7.13;100.0
68376;BME280;55318;52.068;5.188;2023-02-22T08:44:58;101288.0;;;7.25;100.0
68376;BME280;55318;52.068;5.188;2023-02-22T08:46:35;101283.0;;;7.15;100.0
68376;BME280;55318;52.068;5.188;2023-02-22T08:48:11;101278.0;;;7.04;100.0
68376;BME280;55318;52.068;5.188;2023-02-22T08:51:24;101268.0;;;7.03;100.0
68376;BME280;55318;52.068;5.188;2023-02-22T08:53:03;101266.0;;;7.22;100.0
68376;BME280;55318;52.068;5.188;2023-02-22T08:54:40;101268.0;;;7.38;100.0
68376;BME280;55318;52.068;5.188;2023-02-22T08:57:53;101256.0;;;7.38;100.0
68376;BME280;55318;52.068;5.188;2023-02-22T08:59:29;101257.0;;;7.3;100.0
68376;BME280;55318;52.068;5.188;2023-02-22T09:01:05;101261.0;;;7.36;100.0
68376;BME280;55318;52.068;5.188;2023-02-22T09:02:41;101264.0;;;7.23;100.0
68376;BME280;55318;52.068;5.188;2023-02-22T09:05:55;101267.0;;;7.45;100.0
68376;BME280;55318;52.068;5.188;2023-02-22T09:07:31;101261.0;;;7.46;100.0
68376;BME280;55318;52.068;5.188;2023-02-22T09:09:08;101259.0;;;7.53;100.0
68376;BME280;55318;52.068;5.188;2023-02-22T09:12:22;101260.0;;;7.42;100.0
68376;BME280;55318;52.068;5.188;2023-02-22T09:13:58;101261.0;;;7.47;100.0
68376;BME280;55318;52.068;5.188;2023-02-22T09:15:35;101265.0;;;7.61;99.81
68376;BME280;55318;52.068;5.188;2023-02-22T09:17:12;101258.0;;;7.69;99.46
68376;BME280;55318;52.068;5.188;2023-02-22T09:20:26;101255.0;;;7.75;99.08
68376;BME280;55318;52.068;5.188;2023-02-22T09:22:03;101248.0;;;7.66;99.24
68376;BME280;55318;52.068;5.188;2023-02-22T09:23:40;101245.0;;;7.7;99.35
68376;BME280;55318;52.068;5.188;2023-02-22T09:26:54;101242.0;;;7.62;99.89
68376;BME280;55318;52.068;5.188;2023-02-22T09:28:29;101232.0;;;7.59;99.63
68376;BME280;55318;52.068;5.188;2023-02-22T09:30:16;101234.0;;;7.56;99.93
68376;BME280;55318;52.068;5.188;2023-02-22T09:31:54;101227.0;;;7.67;99.75
68376;BME280;55318;52.068;5.188;2023-02-22T09:35:08;101230.0;;;7.78;99.52
68376;BME280;55318;52.068;5.188;2023-02-22T09:36:46;101223.0;;;7.94;99.41
68376;BME280;55318;52.068;5.188;2023-02-22T09:38:25;101222.0;;;7.96;99.3
68376;BME280;55318;52.068;5.188;2023-02-22T09:41:43;101222.0;;;8.1;98.69
68376;BME280;55318;52.068;5.188;2023-02-22T09:43:34;101221.0;;;8.1;98.38
68376;BME280;55318;52.068;5.188;2023-02-22T09:45:15;101218.0;;;8.14;97.96
68376;BME280;55318;52.068;5.188;2023-02-22T09:46:56;101217.0;;;8.26;97.94
68376;BME280;55318;52.068;5.188;2023-02-22T09:50:20;101210.0;;;8.16;97.65
68376;BME280;55318;52.068;5.188;2023-02-22T09:52:01;101207.0;;;8.14;97.71
68376;BME280;55318;52.068;5.188;2023-02-22T09:53:44;101201.0;;;8.31;97.39
68376;BME280;55318;52.068;5.188;2023-02-22T09:55:30;101199.0;;;8.31;97.62
68376;BME280;55318;52.068;5.188;2023-02-22T09:57:14;101197.0;;;8.55;96.68
68376;BME280;55318;52.068;5.188;2023-02-22T10:00:36;101207.0;;;8.58;96.51
68376;BME280;55318;52.068;5.188;2023-02-22T10:02:20;101211.0;;;8.47;95.94
68376;BME280;55318;52.068;5.188;2023-02-22T10:04:04;101211.0;;;8.56;95.77
68376;BME280;55318;52.068;5.188;2023-02-22T10:05:51;101215.0;;;8.64;95.34
68376;BME280;55318;52.068;5.188;2023-02-22T10:07:31;101213.0;;;8.78;95.1
68376;BME280;55318;52.068;5.188;2023-02-22T10:10:58;101209.0;;;8.85;94.37
68376;BME280;55318;52.068;5.188;2023-02-22T10:12:53;101217.0;;;9.07;94.06
68376;BME280;55318;52.068;5.188;2023-02-22T10:14:47;101214.0;;;8.94;93.23
68376;BME280;55318;52.068;5.188;2023-02-22T10:16:35;101218.0;;;9.07;93.19
68376;BME280;55318;52.068;5.188;2023-02-22T10:18:44;101215.0;;;9.22;92.88
68376;BME280;55318;52.068;5.188;2023-02-22T10:20:46;101214.0;;;9.15;92.6
68376;BME280;55318;52.068;5.188;2023-02-22T10:22:37;101214.0;;;9.31;91.72
68376;BME280;55318;52.068;5.188;2023-02-22T10:24:30;101213.0;;;9.48;91.28
68376;BME280;55318;52.068;5.188;2023-02-22T10:27:55;101217.0;;;9.31;90.84
68376;BME280;55318;52.068;5.188;2023-02-22T10:29:38;101216.0;;;9.34;90.96
68376;BME280;55318;52.068;5.188;2023-02-22T10:31:20;101212.0;;;9.06;91.97
68376;BME280;55318;52.068;5.188;2023-02-22T10:33:04;101213.0;;;9.15;92.67
68376;BME280;55318;52.068;5.188;2023-02-22T10:34:46;101220.0;;;9.26;91.76
68376;BME280;55318;52.068;5.188;2023-02-22T10:38:11;101225.0;;;9.23;91.84
68376;BME280;55318;52.068;5.188;2023-02-22T10:39:57;101222.0;;;9.21;91.96
68376;BME280;55318;52.068;5.188;2023-02-22T10:41:41;101220.0;;;9.25;92.25
68376;BME280;55318;52.068;5.188;2023-02-22T10:43:23;101217.0;;;9.25;92.56
68376;BME280;55318;52.068;5.188;2023-02-22T10:46:36;101217.0;;;9.28;91.58
68376;BME280;55318;52.068;5.188;2023-02-22T10:48:17;101212.0;;;9.23;91.71
68376;BME280;55318;52.068;5.188;2023-02-22T10:49:56;101208.0;;;9.36;91.39
68376;BME280;55318;52.068;5.188;2023-02-22T10:51:34;101202.0;;;9.44;91.15
68376;BME280;55318;52.068;5.188;2023-02-22T10:54:49;101198.0;;;9.44;90.35
68376;BME280;55318;52.068;5.188;2023-02-22T10:56:29;101209.0;;;9.49;90.3
68376;BME280;55318;52.068;5.188;2023-02-22T10:58:07;101211.0;;;9.48;90.46
68376;BME280;55318;52.068;5.188;2023-02-22T10:59:44;101207.0;;;9.6;90.45
68376;BME280;55318;52.068;5.188;2023-02-22T11:03:04;101210.0;;;9.53;90.54
68376;BME280;55318;52.068;5.188;2023-02-22T11:04:53;101207.0;;;9.78;90.31
68376;BME280;55318;52.068;5.188;2023-02-22T11:06:31;101202.0;;;9.76;89.12
68376;BME280;55318;52.068;5.188;2023-02-22T11:08:15;101200.0;;;9.71;89.12
68376;BME280;55318;52.068;5.188;2023-02-22T11:11:41;101199.0;;;9.64;89.58
68376;BME280;55318;52.068;5.188;2023-02-22T11:13:23;101199.0;;;9.64;89.42
68376;BME280;55318;52.068;5.188;2023-02-22T11:15:26;101207.0;;;9.75;90.0
68376;BME280;55318;52.068;5.188;2023-02-22T11:17:06;101207.0;;;9.69;90.47
68376;BME280;55318;52.068;5.188;2023-02-22T11:18:45;101203.0;;;9.77;90.01